sensor_id;sensor_type;location;lat;lon;timestamp;pressure;altitude;pressure_sealevel;temperature;humidity
45255;BME280;30989;52.078;21.014;2022-11-18T00:01:16;163208.69;;;-2.07;99.75
45255;BME280;30989;52.078;21.014;2022-11-18T00:03:43;163231.28;;;-1.98;99.28
45255;BME280;30989;52.078;21.014;2022-11-18T00:06:11;163225.97;;;-2.00;98.93
45255;BME280;30989;52.078;21.014;2022-11-18T00:08:37;163245.88;;;-1.92;98.52
45255;BME280;30989;52.078;21.014;2022-11-18T00:11:07;163257.81;;;-1.88;98.15
45255;BME280;30989;52.078;21.014;2022-11-18T00:13:33;163260.47;;;-1.87;98.22
45255;BME280;30989;52.078;21.014;2022-11-18T00:16:17;163264.47;;;-1.85;98.09
45255;BME280;30989;52.078;21.014;2022-11-18T00:18:43;163271.09;;;-1.83;97.56
45255;BME280;30989;52.078;21.014;2022-11-18T00:21:10;163277.75;;;-1.80;97.68
45255;BME280;30989;52.078;21.014;2022-11-18T00:23:37;163273.75;;;-1.82;97.49
45255;BME280;30989;52.078;21.014;2022-11-18T00:26:03;163281.72;;;-1.79;97.10
45255;BME280;30989;52.078;21.014;2022-11-18T00:28:30;163287.03;;;-1.77;97.21
45255;BME280;30989;52.078;21.014;2022-11-18T00:31:03;163284.38;;;-1.78;97.36
45255;BME280;30989;52.078;21.014;2022-11-18T00:33:29;163273.75;;;-1.82;96.93
45255;BME280;30989;52.078;21.014;2022-11-18T00:35:55;163265.78;;;-1.85;96.81
45255;BME280;30989;52.078;21.014;2022-11-18T00:38:21;163272.44;;;-1.82;96.78
45255;BME280;30989;52.078;21.014;2022-11-18T00:40:46;163279.06;;;-1.80;97.89
45255;BME280;30989;52.078;21.014;2022-11-18T00:43:12;163285.72;;;-1.77;97.25
45255;BME280;30989;52.078;21.014;2022-11-18T00:45:37;163272.44;;;-1.82;97.03
45255;BME280;30989;52.078;21.014;2022-11-18T00:48:03;163292.34;;;-1.75;97.56
45255;BME280;30989;52.078;21.014;2022-11-18T00:50:28;163289.69;;;-1.76;97.15
45255;BME280;30989;52.078;21.014;2022-11-18T00:52:54;163259.16;;;-1.87;97.30
45255;BME280;30989;52.078;21.014;2022-11-18T00:55:19;163292.34;;;-1.75;97.31
45255;BME280;30989;52.078;21.014;2022-11-18T00:57:45;163280.41;;;-1.79;97.33
45255;BME280;30989;52.078;21.014;2022-11-18T01:00:10;163272.44;;;-1.82;96.83
45255;BME280;30989;52.078;21.014;2022-11-18T01:02:36;163277.75;;;-1.80;97.10
45255;BME280;30989;52.078;21.014;2022-11-18T01:05:02;163279.06;;;-1.80;97.54
45255;BME280;30989;52.078;21.014;2022-11-18T01:07:28;163283.06;;;-1.78;97.24
45255;BME280;30989;52.078;21.014;2022-11-18T01:09:54;163280.41;;;-1.79;96.72
45255;BME280;30989;52.078;21.014;2022-11-18T01:12:20;163273.75;;;-1.82;96.38
45255;BME280;30989;52.078;21.014;2022-11-18T01:15:04;163277.75;;;-1.80;95.83
45255;BME280;30989;52.078;21.014;2022-11-18T01:17:30;163276.41;;;-1.81;95.40
45255;BME280;30989;52.078;21.014;2022-11-18T01:19:56;163268.44;;;-1.84;96.00
45255;BME280;30989;52.078;21.014;2022-11-18T01:22:22;163276.41;;;-1.81;95.24
45255;BME280;30989;52.078;21.014;2022-11-18T01:24:47;163273.75;;;-1.82;95.18
45255;BME280;30989;52.078;21.014;2022-11-18T01:27:13;163249.88;;;-1.91;95.70
45255;BME280;30989;52.078;21.014;2022-11-18T01:29:38;163256.50;;;-1.88;95.44
45255;BME280;30989;52.078;21.014;2022-11-18T01:32:04;163259.16;;;-1.87;96.15
45255;BME280;30989;52.078;21.014;2022-11-18T01:34:29;163263.13;;;-1.86;96.16
45255;BME280;30989;52.078;21.014;2022-11-18T01:36:55;163267.13;;;-1.84;96.07
45255;BME280;30989;52.078;21.014;2022-11-18T01:39:23;163273.75;;;-1.82;96.18
45255;BME280;30989;52.078;21.014;2022-11-18T01:41:48;163268.44;;;-1.84;96.21
45255;BME280;30989;52.078;21.014;2022-11-18T01:47:17;163279.06;;;-1.80;95.73
45255;BME280;30989;52.078;21.014;2022-11-18T01:49:43;163268.44;;;-1.84;95.93
45255;BME280;30989;52.078;21.014;2022-11-18T01:52:09;163279.06;;;-1.80;95.94
45255;BME280;30989;52.078;21.014;2022-11-18T01:54:38;163287.03;;;-1.77;96.00
45255;BME280;30989;52.078;21.014;2022-11-18T01:57:11;163295.00;;;-1.74;95.97
45255;BME280;30989;52.078;21.014;2022-11-18T01:59:41;163297.66;;;-1.73;95.74
45255;BME280;30989;52.078;21.014;2022-11-18T02:02:11;163287.03;;;-1.77;95.69
45255;BME280;30989;52.078;21.014;2022-11-18T02:04:38;163287.03;;;-1.77;96.65
45255;BME280;30989;52.078;21.014;2022-11-18T02:07:05;163299.00;;;-1.72;96.03
45255;BME280;30989;52.078;21.014;2022-11-18T02:09:31;163287.03;;;-1.77;95.61
45255;BME280;30989;52.078;21.014;2022-11-18T02:11:57;163293.69;;;-1.74;96.09
45255;BME280;30989;52.078;21.014;2022-11-18T02:14:26;163299.00;;;-1.72;95.96
45255;BME280;30989;52.078;21.014;2022-11-18T02:19:29;163305.63;;;-1.70;96.18
45255;BME280;30989;52.078;21.014;2022-11-18T02:25:06;163310.94;;;-1.68;96.66
45255;BME280;30989;52.078;21.014;2022-11-18T02:30:20;163317.59;;;-1.65;95.61
45255;BME280;30989;52.078;21.014;2022-11-18T02:32:59;163312.28;;;-1.67;95.44
45255;BME280;30989;52.078;21.014;2022-11-18T02:35:30;163314.94;;;-1.66;95.13
45255;BME280;30989;52.078;21.014;2022-11-18T02:38:10;163316.25;;;-1.66;95.54
45255;BME280;30989;52.078;21.014;2022-11-18T02:40:42;163322.91;;;-1.63;95.47
45255;BME280;30989;52.078;21.014;2022-11-18T02:43:18;163316.25;;;-1.66;95.64
45255;BME280;30989;52.078;21.014;2022-11-18T02:45:48;163324.22;;;-1.63;96.07
45255;BME280;30989;52.078;21.014;2022-11-18T02:48:16;163324.22;;;-1.63;95.70
45255;BME280;30989;52.078;21.014;2022-11-18T02:50:44;163316.25;;;-1.66;95.61
45255;BME280;30989;52.078;21.014;2022-11-18T02:53:19;163324.22;;;-1.63;95.81
45255;BME280;30989;52.078;21.014;2022-11-18T02:55:45;163316.25;;;-1.66;96.01
45255;BME280;30989;52.078;21.014;2022-11-18T02:58:13;163310.94;;;-1.68;96.29
45255;BME280;30989;52.078;21.014;2022-11-18T03:00:40;163321.56;;;-1.64;96.58
45255;BME280;30989;52.078;21.014;2022-11-18T03:03:35;163334.84;;;-1.58;96.66
45255;BME280;30989;52.078;21.014;2022-11-18T03:11:45;163310.94;;;-1.68;96.75
45255;BME280;30989;52.078;21.014;2022-11-18T03:14:31;163329.53;;;-1.60;96.24
45255;BME280;30989;52.078;21.014;2022-11-18T03:20:29;163333.53;;;-1.59;96.12
45255;BME280;30989;52.078;21.014;2022-11-18T03:23:08;163333.53;;;-1.59;96.65
45255;BME280;30989;52.078;21.014;2022-11-18T03:25:43;163340.16;;;-1.56;96.67
45255;BME280;30989;52.078;21.014;2022-11-18T03:28:22;163341.50;;;-1.56;96.27
45255;BME280;30989;52.078;21.014;2022-11-18T03:31:02;163302.97;;;-1.71;96.05
45255;BME280;30989;52.078;21.014;2022-11-18T03:33:36;163324.22;;;-1.63;96.06
45255;BME280;30989;52.078;21.014;2022-11-18T03:36:05;163310.94;;;-1.68;96.22
45255;BME280;30989;52.078;21.014;2022-11-18T03:38:37;163309.63;;;-1.68;96.02
45255;BME280;30989;52.078;21.014;2022-11-18T03:41:07;163292.34;;;-1.75;96.21
45255;BME280;30989;52.078;21.014;2022-11-18T03:43:42;163296.34;;;-1.73;96.42
45255;BME280;30989;52.078;21.014;2022-11-18T03:46:16;163295.00;;;-1.74;96.37
45255;BME280;30989;52.078;21.014;2022-11-18T03:48:54;163300.31;;;-1.72;96.74
45255;BME280;30989;52.078;21.014;2022-11-18T03:51:30;163301.66;;;-1.71;97.04
45255;BME280;30989;52.078;21.014;2022-11-18T03:54:02;163302.97;;;-1.71;97.03
45255;BME280;30989;52.078;21.014;2022-11-18T03:56:36;163308.28;;;-1.69;97.18
45255;BME280;30989;52.078;21.014;2022-11-18T04:02:03;163308.28;;;-1.69;97.35
45255;BME280;30989;52.078;21.014;2022-11-18T04:04:31;163310.94;;;-1.68;96.86
45255;BME280;30989;52.078;21.014;2022-11-18T04:09:57;163313.59;;;-1.67;97.66
45255;BME280;30989;52.078;21.014;2022-11-18T04:12:26;163308.28;;;-1.69;97.56
45255;BME280;30989;52.078;21.014;2022-11-18T04:14:54;163310.94;;;-1.68;97.37
45255;BME280;30989;52.078;21.014;2022-11-18T04:17:21;163284.38;;;-1.78;97.83
45255;BME280;30989;52.078;21.014;2022-11-18T04:19:48;163292.34;;;-1.75;97.97
45255;BME280;30989;52.078;21.014;2022-11-18T04:22:14;163277.75;;;-1.80;98.13
45255;BME280;30989;52.078;21.014;2022-11-18T04:24:40;163301.66;;;-1.71;98.61
45255;BME280;30989;52.078;21.014;2022-11-18T04:27:06;163299.00;;;-1.72;98.67
45255;BME280;30989;52.078;21.014;2022-11-18T04:29:32;163313.59;;;-1.67;98.76
45255;BME280;30989;52.078;21.014;2022-11-18T04:31:59;163318.91;;;-1.65;98.65
45255;BME280;30989;52.078;21.014;2022-11-18T04:34:25;163318.91;;;-1.65;98.86
45255;BME280;30989;52.078;21.014;2022-11-18T04:36:51;163317.59;;;-1.65;98.87
45255;BME280;30989;52.078;21.014;2022-11-18T04:39:16;163314.94;;;-1.66;98.96
45255;BME280;30989;52.078;21.014;2022-11-18T04:41:45;163314.94;;;-1.66;99.10
45255;BME280;30989;52.078;21.014;2022-11-18T04:44:27;163314.94;;;-1.66;99.25
45255;BME280;30989;52.078;21.014;2022-11-18T04:46:53;163312.28;;;-1.67;99.33
45255;BME280;30989;52.078;21.014;2022-11-18T04:49:19;163305.63;;;-1.70;99.19
45255;BME280;30989;52.078;21.014;2022-11-18T04:51:46;163302.97;;;-1.71;99.28
45255;BME280;30989;52.078;21.014;2022-11-18T04:54:12;163302.97;;;-1.71;99.58
45255;BME280;30989;52.078;21.014;2022-11-18T04:56:38;163302.97;;;-1.71;99.76
45255;BME280;30989;52.078;21.014;2022-11-18T04:59:04;163297.66;;;-1.73;99.71
45255;BME280;30989;52.078;21.014;2022-11-18T05:01:30;163277.75;;;-1.80;100.00
45255;BME280;30989;52.078;21.014;2022-11-18T05:03:56;163275.09;;;-1.81;100.00
45255;BME280;30989;52.078;21.014;2022-11-18T05:06:22;163248.53;;;-1.91;100.00
45255;BME280;30989;52.078;21.014;2022-11-18T05:08:48;163239.25;;;-1.95;100.00
45255;BME280;30989;52.078;21.014;2022-11-18T05:11:13;163225.97;;;-2.00;100.00
45255;BME280;30989;52.078;21.014;2022-11-18T05:13:57;163212.69;;;-2.05;100.00
45255;BME280;30989;52.078;21.014;2022-11-18T05:16:23;163204.72;;;-2.08;100.00
45255;BME280;30989;52.078;21.014;2022-11-18T05:18:48;163191.44;;;-2.13;100.00
45255;BME280;30989;52.078;21.014;2022-11-18T05:21:14;163186.13;;;-2.15;100.00
45255;BME280;30989;52.078;21.014;2022-11-18T05:23:39;163192.78;;;-2.13;100.00
45255;BME280;30989;52.078;21.014;2022-11-18T05:26:06;163202.06;;;-2.09;100.00
45255;BME280;30989;52.078;21.014;2022-11-18T05:28:33;163204.72;;;-2.08;100.00
45255;BME280;30989;52.078;21.014;2022-11-18T05:30:58;163199.41;;;-2.10;100.00
45255;BME280;30989;52.078;21.014;2022-11-18T05:33:24;163202.06;;;-2.09;100.00
45255;BME280;30989;52.078;21.014;2022-11-18T05:35:49;163194.09;;;-2.12;100.00
45255;BME280;30989;52.078;21.014;2022-11-18T05:38:15;163192.78;;;-2.13;100.00
45255;BME280;30989;52.078;21.014;2022-11-18T05:40:43;163178.16;;;-2.18;100.00
45255;BME280;30989;52.078;21.014;2022-11-18T05:43:09;163180.81;;;-2.17;100.00
45255;BME280;30989;52.078;21.014;2022-11-18T05:45:35;163162.25;;;-2.24;100.00
45255;BME280;30989;52.078;21.014;2022-11-18T05:48:00;163167.56;;;-2.22;100.00
45255;BME280;30989;52.078;21.014;2022-11-18T05:50:30;163151.63;;;-2.29;100.00
45255;BME280;30989;52.078;21.014;2022-11-18T05:52:56;163162.25;;;-2.24;100.00
45255;BME280;30989;52.078;21.014;2022-11-18T05:55:24;163152.94;;;-2.28;100.00
45255;BME280;30989;52.078;21.014;2022-11-18T05:57:54;163148.97;;;-2.30;100.00
45255;BME280;30989;52.078;21.014;2022-11-18T06:00:20;163130.38;;;-2.37;100.00
45255;BME280;30989;52.078;21.014;2022-11-18T06:02:47;163127.72;;;-2.38;100.00
45255;BME280;30989;52.078;21.014;2022-11-18T06:05:15;163130.38;;;-2.37;100.00
45255;BME280;30989;52.078;21.014;2022-11-18T06:07:44;163127.72;;;-2.38;100.00
45255;BME280;30989;52.078;21.014;2022-11-18T06:10:17;163091.91;;;-2.51;100.00
45255;BME280;30989;52.078;21.014;2022-11-18T06:12:50;163127.72;;;-2.38;100.00
45255;BME280;30989;52.078;21.014;2022-11-18T06:15:23;163126.41;;;-2.38;100.00
45255;BME280;30989;52.078;21.014;2022-11-18T06:18:03;163119.78;;;-2.41;100.00
45255;BME280;30989;52.078;21.014;2022-11-18T06:20:32;163105.16;;;-2.46;100.00
45255;BME280;30989;52.078;21.014;2022-11-18T06:22:58;163102.50;;;-2.47;100.00
45255;BME280;30989;52.078;21.014;2022-11-18T06:25:25;163103.84;;;-2.47;100.00
45255;BME280;30989;52.078;21.014;2022-11-18T06:27:53;163113.13;;;-2.43;100.00
45255;BME280;30989;52.078;21.014;2022-11-18T06:30:20;163117.13;;;-2.42;100.00
45255;BME280;30989;52.078;21.014;2022-11-18T06:32:45;163117.13;;;-2.42;100.00
45255;BME280;30989;52.078;21.014;2022-11-18T06:35:11;163118.44;;;-2.41;100.00
45255;BME280;30989;52.078;21.014;2022-11-18T06:37:36;163135.69;;;-2.35;100.00
45255;BME280;30989;52.078;21.014;2022-11-18T06:40:02;163141.00;;;-2.33;100.00
45255;BME280;30989;52.078;21.014;2022-11-18T06:42:28;163143.66;;;-2.32;100.00
45255;BME280;30989;52.078;21.014;2022-11-18T06:45:12;163141.00;;;-2.33;100.00
45255;BME280;30989;52.078;21.014;2022-11-18T06:47:37;163133.03;;;-2.36;100.00
45255;BME280;30989;52.078;21.014;2022-11-18T06:50:04;163147.63;;;-2.30;100.00
45255;BME280;30989;52.078;21.014;2022-11-18T06:52:29;163151.63;;;-2.29;100.00
45255;BME280;30989;52.078;21.014;2022-11-18T06:54:55;163154.28;;;-2.28;100.00
45255;BME280;30989;52.078;21.014;2022-11-18T06:57:20;163133.03;;;-2.36;100.00
45255;BME280;30989;52.078;21.014;2022-11-18T06:59:46;163146.31;;;-2.31;100.00
45255;BME280;30989;52.078;21.014;2022-11-18T07:02:14;163133.03;;;-2.36;100.00
45255;BME280;30989;52.078;21.014;2022-11-18T07:04:43;163130.38;;;-2.37;100.00
45255;BME280;30989;52.078;21.014;2022-11-18T07:07:09;163138.34;;;-2.34;100.00
45255;BME280;30989;52.078;21.014;2022-11-18T07:09:35;163125.06;;;-2.39;100.00
45255;BME280;30989;52.078;21.014;2022-11-18T07:12:02;163111.81;;;-2.44;100.00
45255;BME280;30989;52.078;21.014;2022-11-18T07:14:27;163101.19;;;-2.48;100.00
45255;BME280;30989;52.078;21.014;2022-11-18T07:16:53;163110.47;;;-2.44;100.00
45255;BME280;30989;52.078;21.014;2022-11-18T07:19:19;163107.81;;;-2.45;100.00
45255;BME280;30989;52.078;21.014;2022-11-18T07:21:44;163117.13;;;-2.42;100.00
45255;BME280;30989;52.078;21.014;2022-11-18T07:24:14;163122.41;;;-2.40;100.00
45255;BME280;30989;52.078;21.014;2022-11-18T07:26:40;163129.06;;;-2.37;100.00
45255;BME280;30989;52.078;21.014;2022-11-18T07:29:06;163138.34;;;-2.34;100.00
45255;BME280;30989;52.078;21.014;2022-11-18T07:31:32;163143.66;;;-2.32;100.00
45255;BME280;30989;52.078;21.014;2022-11-18T07:33:59;163175.50;;;-2.19;100.00
45255;BME280;30989;52.078;21.014;2022-11-18T07:36:26;163186.13;;;-2.15;100.00
45255;BME280;30989;52.078;21.014;2022-11-18T07:38:52;163179.50;;;-2.18;100.00
45255;BME280;30989;52.078;21.014;2022-11-18T07:41:23;163186.13;;;-2.15;100.00
45255;BME280;30989;52.078;21.014;2022-11-18T07:43:50;163191.44;;;-2.13;100.00
45255;BME280;30989;52.078;21.014;2022-11-18T07:46:19;163190.13;;;-2.14;100.00
45255;BME280;30989;52.078;21.014;2022-11-18T07:48:47;163182.16;;;-2.17;100.00
45255;BME280;30989;52.078;21.014;2022-11-18T07:51:14;163196.75;;;-2.11;100.00
45255;BME280;30989;52.078;21.014;2022-11-18T07:53:40;163199.41;;;-2.10;100.00
45255;BME280;30989;52.078;21.014;2022-11-18T07:56:06;163215.34;;;-2.04;100.00
45255;BME280;30989;52.078;21.014;2022-11-18T07:58:32;163218.00;;;-2.03;100.00
45255;BME280;30989;52.078;21.014;2022-11-18T08:00:58;163214.00;;;-2.05;100.00
45255;BME280;30989;52.078;21.014;2022-11-18T08:03:30;163233.94;;;-1.97;100.00
45255;BME280;30989;52.078;21.014;2022-11-18T08:05:59;163241.91;;;-1.94;100.00
45255;BME280;30989;52.078;21.014;2022-11-18T08:08:25;163241.91;;;-1.94;100.00
45255;BME280;30989;52.078;21.014;2022-11-18T08:10:54;163255.19;;;-1.89;100.00
45255;BME280;30989;52.078;21.014;2022-11-18T08:13:21;163244.56;;;-1.93;100.00
45255;BME280;30989;52.078;21.014;2022-11-18T08:15:47;163232.59;;;-1.98;100.00
45255;BME280;30989;52.078;21.014;2022-11-18T08:18:12;163220.66;;;-2.02;100.00
45255;BME280;30989;52.078;21.014;2022-11-18T08:20:38;163199.41;;;-2.10;100.00
45255;BME280;30989;52.078;21.014;2022-11-18T08:23:03;163225.97;;;-2.00;100.00
45255;BME280;30989;52.078;21.014;2022-11-18T08:25:29;163196.75;;;-2.11;100.00
45255;BME280;30989;52.078;21.014;2022-11-18T08:27:54;163212.69;;;-2.05;100.00
45255;BME280;30989;52.078;21.014;2022-11-18T08:30:20;163231.28;;;-1.98;100.00
45255;BME280;30989;52.078;21.014;2022-11-18T08:32:45;163221.97;;;-2.02;100.00
45255;BME280;30989;52.078;21.014;2022-11-18T08:35:11;163243.22;;;-1.93;100.00
45255;BME280;30989;52.078;21.014;2022-11-18T08:37:36;163239.25;;;-1.95;100.00
45255;BME280;30989;52.078;21.014;2022-11-18T08:40:02;163273.75;;;-1.82;100.00
45255;BME280;30989;52.078;21.014;2022-11-18T08:42:28;163295.00;;;-1.74;100.00
45255;BME280;30989;52.078;21.014;2022-11-18T08:44:53;163287.03;;;-1.77;100.00
45255;BME280;30989;52.078;21.014;2022-11-18T08:47:18;163296.34;;;-1.73;100.00
45255;BME280;30989;52.078;21.014;2022-11-18T08:49:44;163273.75;;;-1.82;100.00
45255;BME280;30989;52.078;21.014;2022-11-18T08:52:09;163277.75;;;-1.80;100.00
45255;BME280;30989;52.078;21.014;2022-11-18T08:54:35;163281.72;;;-1.79;100.00
45255;BME280;30989;52.078;21.014;2022-11-18T08:57:00;163259.16;;;-1.87;100.00
45255;BME280;30989;52.078;21.014;2022-11-18T08:59:26;163285.72;;;-1.77;100.00
45255;BME280;30989;52.078;21.014;2022-11-18T09:01:51;163275.09;;;-1.81;100.00
45255;BME280;30989;52.078;21.014;2022-11-18T09:04:17;163296.34;;;-1.73;100.00
45255;BME280;30989;52.078;21.014;2022-11-18T09:06:43;163297.66;;;-1.73;100.00
45255;BME280;30989;52.078;21.014;2022-11-18T09:09:09;163308.28;;;-1.69;100.00
45255;BME280;30989;52.078;21.014;2022-11-18T09:11:37;163316.25;;;-1.66;100.00
45255;BME280;30989;52.078;21.014;2022-11-18T09:14:03;163345.47;;;-1.54;100.00
45255;BME280;30989;52.078;21.014;2022-11-18T09:16:31;163360.09;;;-1.49;100.00
45255;BME280;30989;52.078;21.014;2022-11-18T09:18:57;163326.88;;;-1.62;100.00
45255;BME280;30989;52.078;21.014;2022-11-18T09:21:23;163369.38;;;-1.45;100.00
45255;BME280;30989;52.078;21.014;2022-11-18T09:23:49;163366.72;;;-1.46;100.00
45255;BME280;30989;52.078;21.014;2022-11-18T09:26:17;163405.25;;;-1.32;100.00
45255;BME280;30989;52.078;21.014;2022-11-18T09:28:43;163413.22;;;-1.28;100.00
45255;BME280;30989;52.078;21.014;2022-11-18T09:31:12;163422.50;;;-1.25;100.00
45255;BME280;30989;52.078;21.014;2022-11-18T09:33:38;163426.50;;;-1.23;100.00
45255;BME280;30989;52.078;21.014;2022-11-18T09:36:05;163433.13;;;-1.21;100.00
45255;BME280;30989;52.078;21.014;2022-11-18T09:38:35;163446.41;;;-1.16;100.00
45255;BME280;30989;52.078;21.014;2022-11-18T09:46:28;163475.66;;;-1.05;100.00
45255;BME280;30989;52.078;21.014;2022-11-18T09:49:02;163479.63;;;-1.03;100.00
45255;BME280;30989;52.078;21.014;2022-11-18T09:51:42;163502.22;;;-0.94;99.99
45255;BME280;30989;52.078;21.014;2022-11-18T09:54:21;163504.88;;;-0.93;100.00
45255;BME280;30989;52.078;21.014;2022-11-18T09:56:49;163512.84;;;-0.90;99.35
45255;BME280;30989;52.078;21.014;2022-11-18T09:59:18;163491.59;;;-0.99;98.14
45255;BME280;30989;52.078;21.014;2022-11-18T10:01:45;163478.31;;;-1.04;98.00
45255;BME280;30989;52.078;21.014;2022-11-18T10:04:19;163466.34;;;-1.08;97.82
45255;BME280;30989;52.078;21.014;2022-11-18T10:06:48;163446.41;;;-1.16;96.54
45255;BME280;30989;52.078;21.014;2022-11-18T10:09:39;163429.16;;;-1.22;96.77
45255;BME280;30989;52.078;21.014;2022-11-18T10:12:26;163406.56;;;-1.31;96.50
45255;BME280;30989;52.078;21.014;2022-11-18T10:15:04;163364.06;;;-1.47;96.58
45255;BME280;30989;52.078;21.014;2022-11-18T10:22:55;163345.47;;;-1.54;96.99
45255;BME280;30989;52.078;21.014;2022-11-18T10:25:22;163340.16;;;-1.56;97.26
45255;BME280;30989;52.078;21.014;2022-11-18T10:27:49;163332.19;;;-1.59;97.50
45255;BME280;30989;52.078;21.014;2022-11-18T10:30:20;163342.81;;;-1.55;97.62
45255;BME280;30989;52.078;21.014;2022-11-18T10:33:01;163345.47;;;-1.54;98.13
45255;BME280;30989;52.078;21.014;2022-11-18T10:38:17;163372.03;;;-1.44;97.69
45255;BME280;30989;52.078;21.014;2022-11-18T10:46:25;163398.59;;;-1.34;96.83
45255;BME280;30989;52.078;21.014;2022-11-18T10:51:34;163415.88;;;-1.27;96.99
45255;BME280;30989;52.078;21.014;2022-11-18T10:54:08;163419.84;;;-1.26;96.69
45255;BME280;30989;52.078;21.014;2022-11-18T10:56:44;163406.56;;;-1.31;97.12
45255;BME280;30989;52.078;21.014;2022-11-18T10:59:20;163433.13;;;-1.21;96.01
45255;BME280;30989;52.078;21.014;2022-11-18T11:02:28;163429.16;;;-1.22;95.96
45255;BME280;30989;52.078;21.014;2022-11-18T11:04:56;163422.50;;;-1.25;94.14
45255;BME280;30989;52.078;21.014;2022-11-18T11:07:30;163417.19;;;-1.27;94.63
45255;BME280;30989;52.078;21.014;2022-11-18T11:12:32;163419.84;;;-1.26;94.33
45255;BME280;30989;52.078;21.014;2022-11-18T11:15:07;163417.19;;;-1.27;94.67
45255;BME280;30989;52.078;21.014;2022-11-18T11:17:50;163430.47;;;-1.22;94.01
45255;BME280;30989;52.078;21.014;2022-11-18T11:20:37;163433.13;;;-1.21;94.08
45255;BME280;30989;52.078;21.014;2022-11-18T11:23:09;163433.13;;;-1.21;93.60
45255;BME280;30989;52.078;21.014;2022-11-18T11:25:42;163425.16;;;-1.24;93.40
45255;BME280;30989;52.078;21.014;2022-11-18T11:28:28;163417.19;;;-1.27;93.82
45255;BME280;30989;52.078;21.014;2022-11-18T11:39:03;163373.38;;;-1.44;91.89
45255;BME280;30989;52.078;21.014;2022-11-18T11:41:48;163385.31;;;-1.39;93.23
45255;BME280;30989;52.078;21.014;2022-11-18T11:44:44;163395.94;;;-1.35;91.75
45255;BME280;30989;52.078;21.014;2022-11-18T11:47:21;163387.97;;;-1.38;91.43
45255;BME280;30989;52.078;21.014;2022-11-18T11:53:13;163378.69;;;-1.42;92.71
45255;BME280;30989;52.078;21.014;2022-11-18T11:58:37;163372.03;;;-1.44;91.74
45255;BME280;30989;52.078;21.014;2022-11-18T12:01:30;163385.31;;;-1.39;91.47
45255;BME280;30989;52.078;21.014;2022-11-18T12:04:14;163385.31;;;-1.39;90.19
45255;BME280;30989;52.078;21.014;2022-11-18T12:06:46;163384.00;;;-1.40;91.21
45255;BME280;30989;52.078;21.014;2022-11-18T12:09:51;163390.63;;;-1.37;90.71
45255;BME280;30989;52.078;21.014;2022-11-18T12:17:51;163402.59;;;-1.33;89.44
45255;BME280;30989;52.078;21.014;2022-11-18T12:23:29;163410.56;;;-1.30;90.28
45255;BME280;30989;52.078;21.014;2022-11-18T12:26:07;163439.78;;;-1.18;90.49
45255;BME280;30989;52.078;21.014;2022-11-18T12:33:56;163450.41;;;-1.14;86.67
45255;BME280;30989;52.078;21.014;2022-11-18T12:36:38;163447.75;;;-1.15;87.72
45255;BME280;30989;52.078;21.014;2022-11-18T12:44:36;163450.41;;;-1.14;86.80
45255;BME280;30989;52.078;21.014;2022-11-18T12:47:05;163465.03;;;-1.09;87.66
45255;BME280;30989;52.078;21.014;2022-11-18T12:52:01;163486.28;;;-1.01;88.62
45255;BME280;30989;52.078;21.014;2022-11-18T12:54:45;163518.16;;;-0.88;89.00
45255;BME280;30989;52.078;21.014;2022-11-18T12:57:18;163520.81;;;-0.87;87.10
45255;BME280;30989;52.078;21.014;2022-11-18T12:59:43;163506.22;;;-0.93;87.47
45255;BME280;30989;52.078;21.014;2022-11-18T13:04:35;163491.59;;;-0.99;87.90
45255;BME280;30989;52.078;21.014;2022-11-18T13:07:01;163496.91;;;-0.97;88.07
45255;BME280;30989;52.078;21.014;2022-11-18T13:09:29;163502.22;;;-0.94;88.27
45255;BME280;30989;52.078;21.014;2022-11-18T13:11:58;163518.16;;;-0.88;87.64
45255;BME280;30989;52.078;21.014;2022-11-18T13:14:27;163536.78;;;-0.81;87.84
45255;BME280;30989;52.078;21.014;2022-11-18T13:17:31;163558.03;;;-0.73;86.97
45255;BME280;30989;52.078;21.014;2022-11-18T13:20:25;163558.03;;;-0.73;86.16
45255;BME280;30989;52.078;21.014;2022-11-18T13:25:52;163510.19;;;-0.91;86.71
45255;BME280;30989;52.078;21.014;2022-11-18T13:28:42;163531.47;;;-0.83;87.09
45255;BME280;30989;52.078;21.014;2022-11-18T13:31:34;163534.13;;;-0.82;86.40
45255;BME280;30989;52.078;21.014;2022-11-18T13:34:18;163523.47;;;-0.86;87.23
45255;BME280;30989;52.078;21.014;2022-11-18T13:36:45;163512.84;;;-0.90;86.91
45255;BME280;30989;52.078;21.014;2022-11-18T13:39:18;163507.53;;;-0.92;87.27
45255;BME280;30989;52.078;21.014;2022-11-18T13:41:45;163498.25;;;-0.96;87.33
45255;BME280;30989;52.078;21.014;2022-11-18T13:44:16;163494.25;;;-0.98;87.98
45255;BME280;30989;52.078;21.014;2022-11-18T13:46:44;163488.94;;;-1.00;87.04
45255;BME280;30989;52.078;21.014;2022-11-18T13:49:17;163475.66;;;-1.05;87.56
45255;BME280;30989;52.078;21.014;2022-11-18T13:51:44;163462.38;;;-1.10;87.41
45255;BME280;30989;52.078;21.014;2022-11-18T13:54:15;163446.41;;;-1.16;88.13
45255;BME280;30989;52.078;21.014;2022-11-18T13:56:43;163421.19;;;-1.25;88.11
45255;BME280;30989;52.078;21.014;2022-11-18T13:59:17;163427.81;;;-1.23;88.21
45255;BME280;30989;52.078;21.014;2022-11-18T14:01:46;163413.22;;;-1.28;88.44
45255;BME280;30989;52.078;21.014;2022-11-18T14:04:18;163417.19;;;-1.27;88.95
45255;BME280;30989;52.078;21.014;2022-11-18T14:06:43;163422.50;;;-1.25;89.72
45255;BME280;30989;52.078;21.014;2022-11-18T14:09:28;163421.19;;;-1.25;89.73
45255;BME280;30989;52.078;21.014;2022-11-18T14:12:06;163411.88;;;-1.29;89.72
45255;BME280;30989;52.078;21.014;2022-11-18T14:14:45;163407.91;;;-1.31;90.02
45255;BME280;30989;52.078;21.014;2022-11-18T14:17:25;163395.94;;;-1.35;90.33
45255;BME280;30989;52.078;21.014;2022-11-18T14:19:53;163410.56;;;-1.30;90.38
45255;BME280;30989;52.078;21.014;2022-11-18T14:22:21;163403.91;;;-1.32;89.69